sensor_id;sensor_type;location;lat;lon;timestamp;P1;durP1;ratioP1;P2;durP2;ratioP2
20245;SDS011;10281;54.406;18.556;2023-05-10T00:02:10;7.00;;;3.77;;
20245;SDS011;10281;54.406;18.556;2023-05-10T00:04:37;7.10;;;3.73;;
20245;SDS011;10281;54.406;18.556;2023-05-10T00:07:03;5.80;;;3.93;;
20245;SDS011;10281;54.406;18.556;2023-05-10T00:09:30;6.20;;;3.87;;
20245;SDS011;10281;54.406;18.556;2023-05-10T00:11:56;5.77;;;3.80;;
20245;SDS011;10281;54.406;18.556;2023-05-10T00:14:23;4.30;;;3.67;;
20245;SDS011;10281;54.406;18.556;2023-05-10T00:16:50;5.27;;;3.97;;
20245;SDS011;10281;54.406;18.556;2023-05-10T00:19:17;5.93;;;3.70;;
20245;SDS011;10281;54.406;18.556;2023-05-10T00:21:43;4.83;;;4.07;;
20245;SDS011;10281;54.406;18.556;2023-05-10T00:24:10;9.80;;;3.80;;
20245;SDS011;10281;54.406;18.556;2023-05-10T00:26:37;5.57;;;3.90;;
20245;SDS011;10281;54.406;18.556;2023-05-10T00:29:03;6.03;;;4.20;;
20245;SDS011;10281;54.406;18.556;2023-05-10T00:31:30;5.50;;;3.97;;
20245;SDS011;10281;54.406;18.556;2023-05-10T00:33:56;6.03;;;3.67;;
20245;SDS011;10281;54.406;18.556;2023-05-10T00:36:23;4.77;;;3.73;;
20245;SDS011;10281;54.406;18.556;2023-05-10T00:38:50;5.70;;;4.00;;
20245;SDS011;10281;54.406;18.556;2023-05-10T00:41:16;4.50;;;3.53;;
20245;SDS011;10281;54.406;18.556;2023-05-10T00:43:43;6.33;;;3.73;;
20245;SDS011;10281;54.406;18.556;2023-05-10T00:46:09;5.13;;;3.63;;
20245;SDS011;10281;54.406;18.556;2023-05-10T00:48:36;7.13;;;4.10;;
20245;SDS011;10281;54.406;18.556;2023-05-10T00:51:03;5.33;;;3.77;;
20245;SDS011;10281;54.406;18.556;2023-05-10T00:53:30;5.73;;;3.50;;
20245;SDS011;10281;54.406;18.556;2023-05-10T00:55:58;5.27;;;3.77;;
20245;SDS011;10281;54.406;18.556;2023-05-10T00:58:25;6.27;;;3.77;;
20245;SDS011;10281;54.406;18.556;2023-05-10T01:00:54;7.43;;;4.00;;
20245;SDS011;10281;54.406;18.556;2023-05-10T01:03:22;4.13;;;3.70;;
20245;SDS011;10281;54.406;18.556;2023-05-10T01:05:49;7.87;;;3.80;;
20245;SDS011;10281;54.406;18.556;2023-05-10T01:08:16;4.33;;;3.63;;
20245;SDS011;10281;54.406;18.556;2023-05-10T01:10:43;6.53;;;3.60;;
20245;SDS011;10281;54.406;18.556;2023-05-10T01:13:11;4.53;;;3.60;;
20245;SDS011;10281;54.406;18.556;2023-05-10T01:15:39;7.97;;;4.37;;
20245;SDS011;10281;54.406;18.556;2023-05-10T01:18:06;10.60;;;4.43;;
20245;SDS011;10281;54.406;18.556;2023-05-10T01:20:35;6.03;;;3.90;;
20245;SDS011;10281;54.406;18.556;2023-05-10T01:23:18;5.77;;;4.23;;
20245;SDS011;10281;54.406;18.556;2023-05-10T01:26:05;5.23;;;3.70;;
20245;SDS011;10281;54.406;18.556;2023-05-10T01:34:20;6.17;;;4.03;;
20245;SDS011;10281;54.406;18.556;2023-05-10T01:36:55;4.83;;;3.63;;
20245;SDS011;10281;54.406;18.556;2023-05-10T01:39:24;5.73;;;3.70;;
20245;SDS011;10281;54.406;18.556;2023-05-10T01:42:01;6.83;;;4.30;;
20245;SDS011;10281;54.406;18.556;2023-05-10T01:44:37;8.10;;;4.10;;
20245;SDS011;10281;54.406;18.556;2023-05-10T01:47:11;10.60;;;4.77;;
20245;SDS011;10281;54.406;18.556;2023-05-10T01:49:43;7.43;;;4.10;;
20245;SDS011;10281;54.406;18.556;2023-05-10T01:52:22;6.67;;;4.40;;
20245;SDS011;10281;54.406;18.556;2023-05-10T01:54:53;8.10;;;4.10;;
20245;SDS011;10281;54.406;18.556;2023-05-10T01:57:23;7.17;;;4.27;;
20245;SDS011;10281;54.406;18.556;2023-05-10T01:59:52;7.60;;;4.37;;
20245;SDS011;10281;54.406;18.556;2023-05-10T02:02:21;6.33;;;3.97;;
20245;SDS011;10281;54.406;18.556;2023-05-10T02:04:50;5.30;;;4.20;;
20245;SDS011;10281;54.406;18.556;2023-05-10T02:07:19;5.60;;;4.10;;
20245;SDS011;10281;54.406;18.556;2023-05-10T02:09:47;7.80;;;4.53;;
20245;SDS011;10281;54.406;18.556;2023-05-10T02:12:16;7.03;;;3.80;;
20245;SDS011;10281;54.406;18.556;2023-05-10T02:14:45;7.67;;;4.80;;
20245;SDS011;10281;54.406;18.556;2023-05-10T02:17:13;6.53;;;4.17;;
20245;SDS011;10281;54.406;18.556;2023-05-10T02:19:41;4.43;;;3.83;;
20245;SDS011;10281;54.406;18.556;2023-05-10T02:22:10;5.47;;;4.07;;
20245;SDS011;10281;54.406;18.556;2023-05-10T02:24:38;7.07;;;4.23;;
20245;SDS011;10281;54.406;18.556;2023-05-10T02:27:06;6.33;;;4.53;;
20245;SDS011;10281;54.406;18.556;2023-05-10T02:29:35;7.23;;;4.50;;
20245;SDS011;10281;54.406;18.556;2023-05-10T02:32:03;5.13;;;4.37;;
20245;SDS011;10281;54.406;18.556;2023-05-10T02:34:30;6.73;;;4.17;;
20245;SDS011;10281;54.406;18.556;2023-05-10T02:36:57;5.87;;;4.10;;
20245;SDS011;10281;54.406;18.556;2023-05-10T02:39:25;7.43;;;4.20;;
20245;SDS011;10281;54.406;18.556;2023-05-10T02:41:54;7.37;;;4.17;;
20245;SDS011;10281;54.406;18.556;2023-05-10T02:44:23;8.10;;;4.57;;
20245;SDS011;10281;54.406;18.556;2023-05-10T02:46:50;6.63;;;4.70;;
20245;SDS011;10281;54.406;18.556;2023-05-10T02:49:17;5.20;;;4.23;;
20245;SDS011;10281;54.406;18.556;2023-05-10T02:51:46;7.57;;;4.07;;
20245;SDS011;10281;54.406;18.556;2023-05-10T02:54:18;7.27;;;4.83;;
20245;SDS011;10281;54.406;18.556;2023-05-10T02:56:47;8.53;;;4.60;;
20245;SDS011;10281;54.406;18.556;2023-05-10T02:59:19;6.90;;;4.93;;
20245;SDS011;10281;54.406;18.556;2023-05-10T03:01:46;7.70;;;5.50;;
20245;SDS011;10281;54.406;18.556;2023-05-10T03:04:13;6.17;;;4.57;;
20245;SDS011;10281;54.406;18.556;2023-05-10T03:06:39;6.77;;;4.67;;
20245;SDS011;10281;54.406;18.556;2023-05-10T03:09:06;7.20;;;4.37;;
20245;SDS011;10281;54.406;18.556;2023-05-10T03:11:38;7.13;;;4.30;;
20245;SDS011;10281;54.406;18.556;2023-05-10T03:14:21;7.17;;;4.60;;
20245;SDS011;10281;54.406;18.556;2023-05-10T03:16:54;7.60;;;5.00;;
20245;SDS011;10281;54.406;18.556;2023-05-10T03:19:27;8.73;;;4.87;;
20245;SDS011;10281;54.406;18.556;2023-05-10T03:21:59;10.20;;;4.50;;
20245;SDS011;10281;54.406;18.556;2023-05-10T03:24:28;6.83;;;4.87;;
20245;SDS011;10281;54.406;18.556;2023-05-10T03:26:56;5.57;;;4.30;;
20245;SDS011;10281;54.406;18.556;2023-05-10T03:29:28;8.67;;;4.70;;
20245;SDS011;10281;54.406;18.556;2023-05-10T03:31:58;7.70;;;5.23;;
20245;SDS011;10281;54.406;18.556;2023-05-10T03:34:25;8.20;;;4.67;;
20245;SDS011;10281;54.406;18.556;2023-05-10T03:36:52;7.03;;;4.87;;
20245;SDS011;10281;54.406;18.556;2023-05-10T03:39:18;6.47;;;4.87;;
20245;SDS011;10281;54.406;18.556;2023-05-10T03:41:46;10.57;;;5.00;;
20245;SDS011;10281;54.406;18.556;2023-05-10T03:44:13;7.93;;;4.40;;
20245;SDS011;10281;54.406;18.556;2023-05-10T03:46:39;9.67;;;4.43;;
20245;SDS011;10281;54.406;18.556;2023-05-10T03:49:06;7.67;;;4.50;;
20245;SDS011;10281;54.406;18.556;2023-05-10T03:51:33;5.03;;;4.53;;
20245;SDS011;10281;54.406;18.556;2023-05-10T03:53:59;8.63;;;5.27;;
20245;SDS011;10281;54.406;18.556;2023-05-10T03:56:26;5.53;;;4.00;;
20245;SDS011;10281;54.406;18.556;2023-05-10T03:58:52;7.00;;;4.67;;
20245;SDS011;10281;54.406;18.556;2023-05-10T04:01:19;7.50;;;4.60;;
20245;SDS011;10281;54.406;18.556;2023-05-10T04:03:45;7.07;;;4.03;;
20245;SDS011;10281;54.406;18.556;2023-05-10T04:06:12;6.57;;;4.43;;
20245;SDS011;10281;54.406;18.556;2023-05-10T04:08:39;8.57;;;4.40;;
20245;SDS011;10281;54.406;18.556;2023-05-10T04:11:07;7.43;;;4.73;;
20245;SDS011;10281;54.406;18.556;2023-05-10T04:13:35;6.33;;;4.77;;
20245;SDS011;10281;54.406;18.556;2023-05-10T04:16:01;10.07;;;5.43;;
20245;SDS011;10281;54.406;18.556;2023-05-10T04:18:28;6.77;;;4.80;;
20245;SDS011;10281;54.406;18.556;2023-05-10T04:20:55;7.10;;;4.90;;
20245;SDS011;10281;54.406;18.556;2023-05-10T04:23:22;5.87;;;4.37;;
20245;SDS011;10281;54.406;18.556;2023-05-10T04:25:49;9.97;;;4.67;;
20245;SDS011;10281;54.406;18.556;2023-05-10T04:28:15;5.53;;;4.63;;
20245;SDS011;10281;54.406;18.556;2023-05-10T04:30:42;11.87;;;5.20;;
20245;SDS011;10281;54.406;18.556;2023-05-10T04:33:08;7.10;;;4.80;;
20245;SDS011;10281;54.406;18.556;2023-05-10T04:35:35;9.77;;;5.10;;
20245;SDS011;10281;54.406;18.556;2023-05-10T04:38:02;7.43;;;4.53;;
20245;SDS011;10281;54.406;18.556;2023-05-10T04:40:28;11.07;;;7.57;;
20245;SDS011;10281;54.406;18.556;2023-05-10T04:42:55;7.00;;;4.60;;
20245;SDS011;10281;54.406;18.556;2023-05-10T04:45:22;6.47;;;4.63;;
20245;SDS011;10281;54.406;18.556;2023-05-10T04:47:48;7.77;;;4.70;;
20245;SDS011;10281;54.406;18.556;2023-05-10T04:50:15;9.90;;;4.80;;
20245;SDS011;10281;54.406;18.556;2023-05-10T04:52:42;10.20;;;5.37;;
20245;SDS011;10281;54.406;18.556;2023-05-10T04:55:09;8.37;;;4.80;;
20245;SDS011;10281;54.406;18.556;2023-05-10T04:57:35;14.20;;;4.70;;
20245;SDS011;10281;54.406;18.556;2023-05-10T05:00:02;8.43;;;4.63;;
20245;SDS011;10281;54.406;18.556;2023-05-10T05:02:29;6.93;;;4.77;;
20245;SDS011;10281;54.406;18.556;2023-05-10T05:04:56;7.20;;;4.37;;
20245;SDS011;10281;54.406;18.556;2023-05-10T05:07:23;6.13;;;4.70;;
20245;SDS011;10281;54.406;18.556;2023-05-10T05:09:51;8.60;;;4.60;;
20245;SDS011;10281;54.406;18.556;2023-05-10T05:12:17;7.33;;;4.30;;
20245;SDS011;10281;54.406;18.556;2023-05-10T05:14:44;7.77;;;4.50;;
20245;SDS011;10281;54.406;18.556;2023-05-10T05:17:10;12.40;;;5.10;;
20245;SDS011;10281;54.406;18.556;2023-05-10T05:19:37;11.17;;;5.03;;
20245;SDS011;10281;54.406;18.556;2023-05-10T05:22:06;7.37;;;4.33;;
20245;SDS011;10281;54.406;18.556;2023-05-10T05:24:35;11.00;;;4.80;;
20245;SDS011;10281;54.406;18.556;2023-05-10T05:27:03;5.80;;;4.03;;
20245;SDS011;10281;54.406;18.556;2023-05-10T05:29:31;6.43;;;4.70;;
20245;SDS011;10281;54.406;18.556;2023-05-10T05:31:58;8.80;;;4.57;;
20245;SDS011;10281;54.406;18.556;2023-05-10T05:34:25;8.53;;;5.10;;
20245;SDS011;10281;54.406;18.556;2023-05-10T05:36:52;7.30;;;4.73;;
20245;SDS011;10281;54.406;18.556;2023-05-10T05:39:19;7.43;;;4.70;;
20245;SDS011;10281;54.406;18.556;2023-05-10T05:41:46;8.73;;;4.90;;
20245;SDS011;10281;54.406;18.556;2023-05-10T05:44:12;5.20;;;4.43;;
20245;SDS011;10281;54.406;18.556;2023-05-10T05:46:39;5.43;;;4.77;;
20245;SDS011;10281;54.406;18.556;2023-05-10T05:49:05;8.70;;;4.47;;
20245;SDS011;10281;54.406;18.556;2023-05-10T05:51:32;5.23;;;4.20;;
20245;SDS011;10281;54.406;18.556;2023-05-10T05:54:00;7.77;;;4.17;;
20245;SDS011;10281;54.406;18.556;2023-05-10T05:56:29;5.67;;;4.40;;
20245;SDS011;10281;54.406;18.556;2023-05-10T05:58:56;8.43;;;4.83;;
20245;SDS011;10281;54.406;18.556;2023-05-10T06:01:22;5.67;;;4.23;;
20245;SDS011;10281;54.406;18.556;2023-05-10T06:03:49;7.40;;;4.50;;
20245;SDS011;10281;54.406;18.556;2023-05-10T06:06:15;6.57;;;4.60;;
20245;SDS011;10281;54.406;18.556;2023-05-10T06:08:42;6.73;;;4.70;;
20245;SDS011;10281;54.406;18.556;2023-05-10T06:11:09;8.90;;;4.50;;
20245;SDS011;10281;54.406;18.556;2023-05-10T06:13:35;6.10;;;4.40;;
20245;SDS011;10281;54.406;18.556;2023-05-10T06:16:02;7.63;;;4.80;;
20245;SDS011;10281;54.406;18.556;2023-05-10T06:18:29;9.73;;;5.00;;
20245;SDS011;10281;54.406;18.556;2023-05-10T06:20:56;6.33;;;5.00;;
20245;SDS011;10281;54.406;18.556;2023-05-10T06:23:23;14.33;;;5.57;;
20245;SDS011;10281;54.406;18.556;2023-05-10T06:25:51;6.77;;;4.33;;
20245;SDS011;10281;54.406;18.556;2023-05-10T06:28:18;11.60;;;4.80;;
20245;SDS011;10281;54.406;18.556;2023-05-10T06:30:44;8.57;;;4.60;;
20245;SDS011;10281;54.406;18.556;2023-05-10T06:33:11;10.40;;;4.40;;
20245;SDS011;10281;54.406;18.556;2023-05-10T06:35:38;10.23;;;4.90;;
20245;SDS011;10281;54.406;18.556;2023-05-10T06:38:04;5.53;;;4.53;;
20245;SDS011;10281;54.406;18.556;2023-05-10T06:40:31;6.83;;;4.40;;
20245;SDS011;10281;54.406;18.556;2023-05-10T06:42:58;10.00;;;4.60;;
20245;SDS011;10281;54.406;18.556;2023-05-10T06:45:25;6.83;;;4.27;;
20245;SDS011;10281;54.406;18.556;2023-05-10T06:47:51;7.60;;;4.80;;
20245;SDS011;10281;54.406;18.556;2023-05-10T06:50:18;7.77;;;4.27;;
20245;SDS011;10281;54.406;18.556;2023-05-10T06:52:44;5.67;;;4.50;;
20245;SDS011;10281;54.406;18.556;2023-05-10T06:55:11;8.33;;;4.20;;
20245;SDS011;10281;54.406;18.556;2023-05-10T06:57:38;6.67;;;4.47;;
20245;SDS011;10281;54.406;18.556;2023-05-10T07:00:05;6.20;;;4.43;;
20245;SDS011;10281;54.406;18.556;2023-05-10T07:02:32;8.37;;;4.83;;
20245;SDS011;10281;54.406;18.556;2023-05-10T07:04:59;9.23;;;4.77;;
20245;SDS011;10281;54.406;18.556;2023-05-10T07:07:26;5.90;;;4.87;;
20245;SDS011;10281;54.406;18.556;2023-05-10T07:09:52;6.93;;;4.50;;
20245;SDS011;10281;54.406;18.556;2023-05-10T07:12:19;6.30;;;4.20;;
20245;SDS011;10281;54.406;18.556;2023-05-10T07:14:46;9.03;;;4.40;;
20245;SDS011;10281;54.406;18.556;2023-05-10T07:17:12;6.53;;;4.27;;
20245;SDS011;10281;54.406;18.556;2023-05-10T07:19:39;9.07;;;3.90;;
20245;SDS011;10281;54.406;18.556;2023-05-10T07:22:06;6.23;;;4.17;;
20245;SDS011;10281;54.406;18.556;2023-05-10T07:24:33;7.23;;;4.30;;
20245;SDS011;10281;54.406;18.556;2023-05-10T07:26:59;6.70;;;4.20;;
20245;SDS011;10281;54.406;18.556;2023-05-10T07:29:26;6.60;;;3.70;;
20245;SDS011;10281;54.406;18.556;2023-05-10T07:31:54;10.30;;;4.40;;
20245;SDS011;10281;54.406;18.556;2023-05-10T07:34:20;5.93;;;3.50;;
20245;SDS011;10281;54.406;18.556;2023-05-10T07:36:47;9.30;;;4.00;;
20245;SDS011;10281;54.406;18.556;2023-05-10T07:39:14;7.13;;;3.50;;
20245;SDS011;10281;54.406;18.556;2023-05-10T07:41:40;6.17;;;3.50;;
20245;SDS011;10281;54.406;18.556;2023-05-10T07:44:07;7.40;;;3.83;;
20245;SDS011;10281;54.406;18.556;2023-05-10T07:46:33;8.43;;;3.47;;
20245;SDS011;10281;54.406;18.556;2023-05-10T07:49:00;5.60;;;3.47;;
20245;SDS011;10281;54.406;18.556;2023-05-10T07:51:27;4.57;;;3.50;;
20245;SDS011;10281;54.406;18.556;2023-05-10T07:53:54;3.90;;;3.50;;
20245;SDS011;10281;54.406;18.556;2023-05-10T07:56:21;8.83;;;3.27;;
20245;SDS011;10281;54.406;18.556;2023-05-10T07:58:55;7.50;;;3.27;;
20245;SDS011;10281;54.406;18.556;2023-05-10T08:01:23;5.47;;;3.40;;
20245;SDS011;10281;54.406;18.556;2023-05-10T08:03:50;6.87;;;3.37;;
20245;SDS011;10281;54.406;18.556;2023-05-10T08:06:17;7.17;;;3.30;;
20245;SDS011;10281;54.406;18.556;2023-05-10T08:08:45;4.20;;;3.17;;
20245;SDS011;10281;54.406;18.556;2023-05-10T08:11:17;3.90;;;3.00;;
20245;SDS011;10281;54.406;18.556;2023-05-10T08:13:45;4.73;;;2.97;;
20245;SDS011;10281;54.406;18.556;2023-05-10T08:16:11;6.87;;;3.23;;
20245;SDS011;10281;54.406;18.556;2023-05-10T08:18:38;4.87;;;3.33;;
20245;SDS011;10281;54.406;18.556;2023-05-10T08:21:05;6.30;;;3.00;;
20245;SDS011;10281;54.406;18.556;2023-05-10T08:23:32;5.73;;;2.80;;
20245;SDS011;10281;54.406;18.556;2023-05-10T08:25:59;4.80;;;2.83;;
20245;SDS011;10281;54.406;18.556;2023-05-10T08:28:26;6.17;;;3.30;;
20245;SDS011;10281;54.406;18.556;2023-05-10T08:30:52;6.37;;;2.93;;
20245;SDS011;10281;54.406;18.556;2023-05-10T08:33:19;10.97;;;3.10;;
20245;SDS011;10281;54.406;18.556;2023-05-10T08:35:46;6.73;;;3.00;;
20245;SDS011;10281;54.406;18.556;2023-05-10T08:38:13;5.07;;;3.10;;
20245;SDS011;10281;54.406;18.556;2023-05-10T08:40:41;4.97;;;2.90;;
20245;SDS011;10281;54.406;18.556;2023-05-10T08:43:09;5.53;;;3.20;;
20245;SDS011;10281;54.406;18.556;2023-05-10T08:45:38;4.90;;;2.47;;
20245;SDS011;10281;54.406;18.556;2023-05-10T08:48:07;6.63;;;2.90;;
20245;SDS011;10281;54.406;18.556;2023-05-10T08:50:36;6.17;;;2.40;;
20245;SDS011;10281;54.406;18.556;2023-05-10T08:53:04;7.50;;;3.00;;
20245;SDS011;10281;54.406;18.556;2023-05-10T08:55:32;6.00;;;2.80;;
20245;SDS011;10281;54.406;18.556;2023-05-10T08:58:01;10.90;;;3.10;;
20245;SDS011;10281;54.406;18.556;2023-05-10T09:00:29;3.27;;;2.50;;
20245;SDS011;10281;54.406;18.556;2023-05-10T09:02:57;3.77;;;2.43;;
20245;SDS011;10281;54.406;18.556;2023-05-10T09:05:25;7.77;;;2.73;;
20245;SDS011;10281;54.406;18.556;2023-05-10T09:07:52;6.60;;;2.70;;
20245;SDS011;10281;54.406;18.556;2023-05-10T09:10:19;7.77;;;2.67;;
20245;SDS011;10281;54.406;18.556;2023-05-10T09:12:47;4.83;;;2.33;;
20245;SDS011;10281;54.406;18.556;2023-05-10T09:15:15;7.67;;;2.97;;
20245;SDS011;10281;54.406;18.556;2023-05-10T09:17:44;15.63;;;3.20;;
20245;SDS011;10281;54.406;18.556;2023-05-10T09:20:11;10.17;;;2.87;;
20245;SDS011;10281;54.406;18.556;2023-05-10T09:22:38;10.60;;;3.10;;
20245;SDS011;10281;54.406;18.556;2023-05-10T09:25:07;8.47;;;2.80;;
20245;SDS011;10281;54.406;18.556;2023-05-10T09:27:37;7.70;;;3.33;;
20245;SDS011;10281;54.406;18.556;2023-05-10T09:30:05;5.43;;;2.80;;
20245;SDS011;10281;54.406;18.556;2023-05-10T09:32:36;7.87;;;3.23;;
20245;SDS011;10281;54.406;18.556;2023-05-10T09:35:09;6.00;;;2.90;;
20245;SDS011;10281;54.406;18.556;2023-05-10T09:37:38;7.87;;;2.90;;
20245;SDS011;10281;54.406;18.556;2023-05-10T09:40:07;15.17;;;3.50;;
20245;SDS011;10281;54.406;18.556;2023-05-10T09:42:38;12.80;;;3.43;;
20245;SDS011;10281;54.406;18.556;2023-05-10T09:45:06;4.97;;;2.40;;
20245;SDS011;10281;54.406;18.556;2023-05-10T09:47:34;5.17;;;2.67;;
20245;SDS011;10281;54.406;18.556;2023-05-10T09:50:02;6.20;;;2.90;;
20245;SDS011;10281;54.406;18.556;2023-05-10T09:52:45;8.90;;;3.00;;
20245;SDS011;10281;54.406;18.556;2023-05-10T09:55:06;3.10;;;2.43;;
20245;SDS011;10281;54.406;18.556;2023-05-10T09:57:33;5.00;;;2.87;;
20245;SDS011;10281;54.406;18.556;2023-05-10T10:00:00;7.30;;;3.07;;
20245;SDS011;10281;54.406;18.556;2023-05-10T10:02:28;6.70;;;2.83;;
20245;SDS011;10281;54.406;18.556;2023-05-10T10:04:55;6.33;;;2.80;;
20245;SDS011;10281;54.406;18.556;2023-05-10T10:07:22;6.50;;;2.97;;
20245;SDS011;10281;54.406;18.556;2023-05-10T10:09:51;7.53;;;2.70;;
20245;SDS011;10281;54.406;18.556;2023-05-10T10:12:19;8.33;;;3.10;;
20245;SDS011;10281;54.406;18.556;2023-05-10T10:14:46;5.13;;;2.80;;
20245;SDS011;10281;54.406;18.556;2023-05-10T10:17:16;9.13;;;3.37;;
20245;SDS011;10281;54.406;18.556;2023-05-10T10:19:43;5.63;;;2.87;;
20245;SDS011;10281;54.406;18.556;2023-05-10T10:22:11;7.07;;;2.90;;
20245;SDS011;10281;54.406;18.556;2023-05-10T10:24:38;6.77;;;2.80;;
20245;SDS011;10281;54.406;18.556;2023-05-10T10:27:13;7.03;;;2.60;;
20245;SDS011;10281;54.406;18.556;2023-05-10T10:30:18;6.07;;;2.53;;
20245;SDS011;10281;54.406;18.556;2023-05-10T10:33:29;6.77;;;2.77;;
20245;SDS011;10281;54.406;18.556;2023-05-10T10:35:40;4.57;;;2.83;;
20245;SDS011;10281;54.406;18.556;2023-05-10T10:38:08;8.13;;;3.13;;
20245;SDS011;10281;54.406;18.556;2023-05-10T10:40:35;6.50;;;2.60;;
20245;SDS011;10281;54.406;18.556;2023-05-10T10:48:29;6.63;;;3.03;;
20245;SDS011;10281;54.406;18.556;2023-05-10T10:50:56;5.00;;;2.47;;
20245;SDS011;10281;54.406;18.556;2023-05-10T10:53:26;8.73;;;2.80;;
20245;SDS011;10281;54.406;18.556;2023-05-10T10:56:04;4.67;;;2.40;;
20245;SDS011;10281;54.406;18.556;2023-05-10T10:58:33;9.57;;;3.10;;
20245;SDS011;10281;54.406;18.556;2023-05-10T11:03:36;8.97;;;2.60;;
20245;SDS011;10281;54.406;18.556;2023-05-10T11:06:03;5.20;;;2.60;;
20245;SDS011;10281;54.406;18.556;2023-05-10T11:08:31;7.07;;;2.50;;
20245;SDS011;10281;54.406;18.556;2023-05-10T11:11:06;9.30;;;2.80;;
20245;SDS011;10281;54.406;18.556;2023-05-10T11:13:34;5.17;;;2.50;;
20245;SDS011;10281;54.406;18.556;2023-05-10T11:18:37;5.20;;;2.50;;
20245;SDS011;10281;54.406;18.556;2023-05-10T11:21:04;37.03;;;4.80;;
20245;SDS011;10281;54.406;18.556;2023-05-10T11:23:32;5.43;;;2.43;;
20245;SDS011;10281;54.406;18.556;2023-05-10T11:26:25;9.57;;;2.90;;
20245;SDS011;10281;54.406;18.556;2023-05-10T11:28:54;10.63;;;2.80;;
20245;SDS011;10281;54.406;18.556;2023-05-10T11:31:21;6.80;;;2.70;;
20245;SDS011;10281;54.406;18.556;2023-05-10T11:33:50;4.83;;;2.53;;
20245;SDS011;10281;54.406;18.556;2023-05-10T11:36:18;9.70;;;2.90;;
20245;SDS011;10281;54.406;18.556;2023-05-10T11:38:48;8.07;;;2.87;;
20245;SDS011;10281;54.406;18.556;2023-05-10T11:41:15;9.10;;;2.77;;
20245;SDS011;10281;54.406;18.556;2023-05-10T11:43:45;8.17;;;2.90;;
20245;SDS011;10281;54.406;18.556;2023-05-10T11:46:14;8.80;;;2.63;;
20245;SDS011;10281;54.406;18.556;2023-05-10T11:48:42;6.07;;;2.43;;
20245;SDS011;10281;54.406;18.556;2023-05-10T11:51:09;4.97;;;2.50;;
20245;SDS011;10281;54.406;18.556;2023-05-10T11:53:37;5.60;;;2.20;;
20245;SDS011;10281;54.406;18.556;2023-05-10T11:56:05;4.97;;;2.60;;
20245;SDS011;10281;54.406;18.556;2023-05-10T11:58:35;6.40;;;2.30;;
20245;SDS011;10281;54.406;18.556;2023-05-10T12:01:04;9.83;;;3.00;;
20245;SDS011;10281;54.406;18.556;2023-05-10T12:03:32;5.03;;;2.83;;
20245;SDS011;10281;54.406;18.556;2023-05-10T12:06:00;6.80;;;2.70;;
20245;SDS011;10281;54.406;18.556;2023-05-10T12:08:28;5.47;;;2.50;;
20245;SDS011;10281;54.406;18.556;2023-05-10T12:11:09;5.70;;;2.63;;
20245;SDS011;10281;54.406;18.556;2023-05-10T12:13:38;8.27;;;3.23;;
20245;SDS011;10281;54.406;18.556;2023-05-10T12:16:13;8.33;;;3.17;;
20245;SDS011;10281;54.406;18.556;2023-05-10T12:18:42;9.17;;;2.97;;
20245;SDS011;10281;54.406;18.556;2023-05-10T12:21:10;11.20;;;5.07;;
20245;SDS011;10281;54.406;18.556;2023-05-10T12:23:38;10.23;;;3.03;;
20245;SDS011;10281;54.406;18.556;2023-05-10T12:26:05;4.10;;;2.63;;
20245;SDS011;10281;54.406;18.556;2023-05-10T12:28:32;8.67;;;2.73;;
20245;SDS011;10281;54.406;18.556;2023-05-10T12:30:59;4.00;;;2.30;;
20245;SDS011;10281;54.406;18.556;2023-05-10T12:33:27;6.90;;;2.87;;
20245;SDS011;10281;54.406;18.556;2023-05-10T12:36:04;10.17;;;3.53;;
20245;SDS011;10281;54.406;18.556;2023-05-10T12:38:32;7.27;;;2.67;;
20245;SDS011;10281;54.406;18.556;2023-05-10T12:41:02;6.80;;;2.93;;
20245;SDS011;10281;54.406;18.556;2023-05-10T12:43:30;5.40;;;2.80;;
20245;SDS011;10281;54.406;18.556;2023-05-10T12:45:57;3.90;;;2.37;;
20245;SDS011;10281;54.406;18.556;2023-05-10T12:48:25;8.30;;;2.53;;
20245;SDS011;10281;54.406;18.556;2023-05-10T12:50:51;9.40;;;2.80;;
20245;SDS011;10281;54.406;18.556;2023-05-10T12:53:18;5.03;;;2.40;;
20245;SDS011;10281;54.406;18.556;2023-05-10T12:55:45;4.97;;;2.43;;
20245;SDS011;10281;54.406;18.556;2023-05-10T12:58:11;5.27;;;2.60;;
20245;SDS011;10281;54.406;18.556;2023-05-10T13:00:38;6.23;;;2.50;;
20245;SDS011;10281;54.406;18.556;2023-05-10T13:03:05;7.60;;;2.97;;
20245;SDS011;10281;54.406;18.556;2023-05-10T13:05:32;10.43;;;2.97;;
20245;SDS011;10281;54.406;18.556;2023-05-10T13:07:59;8.53;;;2.70;;
20245;SDS011;10281;54.406;18.556;2023-05-10T13:10:26;8.70;;;2.70;;
20245;SDS011;10281;54.406;18.556;2023-05-10T13:12:52;7.07;;;2.67;;
20245;SDS011;10281;54.406;18.556;2023-05-10T13:15:19;4.20;;;2.70;;
20245;SDS011;10281;54.406;18.556;2023-05-10T13:17:46;5.00;;;2.97;;
20245;SDS011;10281;54.406;18.556;2023-05-10T13:20:13;7.77;;;2.37;;
20245;SDS011;10281;54.406;18.556;2023-05-10T13:22:41;7.80;;;2.70;;
20245;SDS011;10281;54.406;18.556;2023-05-10T13:25:09;7.60;;;2.90;;
20245;SDS011;10281;54.406;18.556;2023-05-10T13:27:39;6.73;;;2.97;;
20245;SDS011;10281;54.406;18.556;2023-05-10T13:30:06;7.93;;;2.63;;
20245;SDS011;10281;54.406;18.556;2023-05-10T13:32:34;4.90;;;2.57;;
20245;SDS011;10281;54.406;18.556;2023-05-10T13:35:01;5.93;;;2.80;;
20245;SDS011;10281;54.406;18.556;2023-05-10T13:37:30;7.90;;;2.70;;
20245;SDS011;10281;54.406;18.556;2023-05-10T13:40:00;3.20;;;2.40;;
20245;SDS011;10281;54.406;18.556;2023-05-10T13:42:27;6.03;;;2.70;;
20245;SDS011;10281;54.406;18.556;2023-05-10T13:44:54;8.23;;;3.43;;
20245;SDS011;10281;54.406;18.556;2023-05-10T13:47:20;6.97;;;2.77;;
20245;SDS011;10281;54.406;18.556;2023-05-10T13:49:47;7.80;;;3.13;;
20245;SDS011;10281;54.406;18.556;2023-05-10T13:52:14;6.57;;;3.10;;
20245;SDS011;10281;54.406;18.556;2023-05-10T13:54:41;8.87;;;3.20;;
20245;SDS011;10281;54.406;18.556;2023-05-10T13:57:08;9.50;;;3.10;;
20245;SDS011;10281;54.406;18.556;2023-05-10T13:59:35;10.97;;;3.57;;
20245;SDS011;10281;54.406;18.556;2023-05-10T14:02:01;4.70;;;2.90;;
20245;SDS011;10281;54.406;18.556;2023-05-10T14:04:28;8.17;;;2.60;;
20245;SDS011;10281;54.406;18.556;2023-05-10T14:06:56;4.83;;;2.60;;
20245;SDS011;10281;54.406;18.556;2023-05-10T14:09:22;3.90;;;2.33;;
20245;SDS011;10281;54.406;18.556;2023-05-10T14:11:49;9.77;;;3.13;;
20245;SDS011;10281;54.406;18.556;2023-05-10T14:14:16;4.83;;;2.80;;
20245;SDS011;10281;54.406;18.556;2023-05-10T14:16:43;5.90;;;2.67;;
20245;SDS011;10281;54.406;18.556;2023-05-10T14:19:10;8.50;;;3.10;;
20245;SDS011;10281;54.406;18.556;2023-05-10T14:21:37;4.77;;;2.87;;
20245;SDS011;10281;54.406;18.556;2023-05-10T14:24:04;7.50;;;2.40;;
20245;SDS011;10281;54.406;18.556;2023-05-10T14:26:32;8.67;;;2.70;;
20245;SDS011;10281;54.406;18.556;2023-05-10T14:29:00;6.27;;;2.50;;
20245;SDS011;10281;54.406;18.556;2023-05-10T14:31:27;6.83;;;2.40;;
20245;SDS011;10281;54.406;18.556;2023-05-10T14:33:55;5.37;;;2.40;;
20245;SDS011;10281;54.406;18.556;2023-05-10T14:36:23;5.83;;;2.37;;
20245;SDS011;10281;54.406;18.556;2023-05-10T14:38:50;5.43;;;2.60;;
20245;SDS011;10281;54.406;18.556;2023-05-10T14:41:17;7.93;;;2.70;;
20245;SDS011;10281;54.406;18.556;2023-05-10T14:46:21;5.30;;;2.50;;
20245;SDS011;10281;54.406;18.556;2023-05-10T14:51:24;5.67;;;2.60;;
20245;SDS011;10281;54.406;18.556;2023-05-10T14:53:51;6.90;;;2.70;;
20245;SDS011;10281;54.406;18.556;2023-05-10T14:56:18;4.50;;;2.50;;
20245;SDS011;10281;54.406;18.556;2023-05-10T14:58:46;3.97;;;2.30;;
20245;SDS011;10281;54.406;18.556;2023-05-10T15:01:13;4.90;;;2.27;;